Data for 07/13/2013

Time Sea-Level Adjusted Pressure Absolute Pressure Temperature Relative Humidity Dew Point   
(mb) (inHg) (mb) (inHg) (C) (F) (%) (C) (F)
00:05 1017 30.03 847 25.01 17.1 62.7 49 6.5 43.7
00:10 1017 30.03 847 25.01 16.9 62.3 50 6.5 43.7
00:15 1017 30.03 847 25.01 16.9 62.3 50 6.5 43.7
00:20 1017 30.03 847 25.01 17.2 62.9 47 5.8 42.4
00:25 1017 30.03 847 25.01 17.2 63 48 6.2 43.2
00:30 1017 30.03 846 24.98 17.1 62.8 48 6.1 43
00:35 1017 30.03 847 25.01 17.1 62.8 48 6 42.8
00:40 1017 30.03 847 25.01 17.3 63.1 50 6.8 44.2
00:45 1017 30.03 847 25.01 17.2 62.9 50 6.7 44.1
00:50 1017 30.03 847 25.01 16.4 61.6 49 5.8 42.5
00:55 1017 30.03 846 24.98 16.6 61.9 50 6.2 43.2
01:00 1017 30.03 846 24.98 16.3 61.3 52 6.5 43.8
01:05 1017 30.03 846 24.98 15.8 60.5 53 6.5 43.6
01:10 1017 30.03 846 24.98 15.6 60 54 6.3 43.3
01:15 1017 30.03 846 24.98 15.6 60 53 6.2 43.1
01:20 1017 30.03 846 24.98 15.7 60.2 53 6.1 43
01:25 1017 30.03 846 24.98 15.8 60.5 52 6.2 43.1
01:30 1017 30.03 846 24.98 15.8 60.5 52 6.1 43.1
01:35 1017 30.03 846 24.98 15.6 60.1 53 6.2 43.2
01:40 1017 30.03 846 24.98 15.5 59.8 53 6 42.9
01:45 1017 30.03 846 24.98 15.4 59.8 53 6 42.7
01:50 1017 30.03 846 24.98 15.5 59.8 53 5.9 42.7
01:55 1017 30.03 846 24.98 15.6 60.1 52 5.9 42.7
02:00 1017 30.03 846 24.98 15.7 60.3 53 6.3 43.3
02:05 1017 30.03 846 24.98 15.3 59.5 55 6.3 43.3
02:10 1017 30.03 846 24.98 14.8 58.7 56 6.2 43.2
02:15 1017 30.03 846 24.98 14.6 58.3 56 6 42.8
02:20 1017 30.03 846 24.98 14.6 58.3 56 6 42.8
02:25 1017 30.03 846 24.98 14.5 58.2 56 5.9 42.7
02:30 1017 30.03 846 24.98 14.4 58 57 6.1 42.9
02:35 1017 30.03 846 24.98 14.2 57.6 57 6 42.8
02:40 1017 30.03 846 24.98 14.2 57.5 58 6.1 43
02:45 1017 30.03 846 24.98 14.2 57.5 58 6.1 42.9
02:50 1017 30.03 846 24.98 14.5 58.1 57 6.1 42.9
02:55 1017 30.03 846 24.98 15 58.9 57 6.5 43.6
03:00 1017 30.03 846 24.98 15 59 57 6.6 43.8
03:05 1017 30.03 846 24.98 15 59.1 55 6.1 43.1
03:10 1017 30.03 846 24.98 15.7 60.2 53 6.2 43.2
03:15 1017 30.03 846 24.98 16.2 61.1 52 6.5 43.6
03:20 1017 30.03 846 24.98 16.4 61.5 52 6.6 43.8
03:25 1017 30.03 846 24.98 16.5 61.7 52 6.7 44.1
03:30 1017 30.03 846 24.98 16.6 61.9 52 6.7 44.1
03:35 1017 30.03 846 24.98 16.7 62 52 6.7 44.1
03:40 1017 30.03 846 24.98 16.6 61.9 51 6.6 43.8
03:45 1017 30.03 846 24.98 16.6 61.9 51 6.4 43.5
03:50 1017 30.03 846 24.98 16.6 61.9 50 6.4 43.5
03:55 1017 30.03 846 24.98 16.6 61.8 51 6.4 43.5
04:00 1017 30.03 846 24.98 16.5 61.7 50 6.1 43.1
04:05 1017 30.03 846 24.98 16.5 61.6 50 6.2 43.2
04:10 1017 30.03 846 24.98 16.4 61.6 50 6.2 43.2
04:15 1017 30.03 846 24.98 16.3 61.3 51 6.1 43
04:20 1017 30.03 846 24.98 16.3 61.4 50 6 42.9
04:25 1017 30.03 846 24.98 16.3 61.4 50 6 42.8
04:30 1017 30.03 846 24.98 16.1 61 51 6.1 43
04:35 1017 30.03 846 24.98 15.9 60.7 51 5.9 42.6
04:40 1017 30.03 846 24.98 15.9 60.6 52 6.1 43.1
04:45 1017 30.03 846 24.98 15.5 60 53 6.1 43.1
04:50 1017 30.03 846 24.98 15.2 59.4 54 6.1 43.1
04:55 1017 30.03 846 24.98 14.9 58.8 55 6.1 42.9
05:00 1017 30.03 846 24.98 14.8 58.6 57 6.3 43.4
05:05 1017 30.03 846 24.98 14.8 58.6 54 5.7 42.3
05:10 1017 30.03 846 24.98 14.9 58.8 55 6.1 43
05:15 1017 30.03 846 24.98 15.1 59.1 54 6 42.8
05:20 1017 30.03 846 24.98 15.3 59.5 54 6.1 42.9
05:25 1017 30.03 846 24.98 15.5 59.8 55 6.5 43.7
05:30 1017 30.03 846 24.98 15.3 59.5 54 6.2 43.1
05:35 1017 30.03 846 24.98 15.3 59.5 55 6.5 43.6
05:40 1017 30.03 846 24.98 15.4 59.7 54 6.3 43.3
05:45 1017 30.03 846 24.98 15.4 59.6 54 6.2 43.2
05:50 1017 30.03 847 25.01 15.5 59.8 54 6.2 43.2
05:55 1017 30.03 847 25.01 15.6 60 55 6.6 43.8
06:00 1018 30.06 847 25.01 15.8 60.5 54 6.6 43.8
06:05 1018 30.06 847 25.01 15.7 60.3 55 6.7 44
06:10 1018 30.06 847 25.01 15.6 60.1 54 6.4 43.5
06:15 1018 30.06 847 25.01 15.7 60.2 53 6.3 43.3
06:20 1018 30.06 847 25.01 15.8 60.4 54 6.6 43.8
06:25 1018 30.06 847 25.01 16 60.8 54 6.8 44.2
06:30 1018 30.06 847 25.01 15.9 60.7 53 6.4 43.5
06:35 1018 30.06 848 25.04 16.2 61.2 52 6.6 43.9
06:40 1018 30.06 848 25.04 16.5 61.7 52 6.7 44
06:45 1019 30.09 848 25.04 16.2 61.2 52 6.3 43.4
06:50 1019 30.09 848 25.04 16.6 61.9 51 6.6 43.9
06:55 1019 30.09 848 25.04 17.1 62.8 49 6.5 43.8
07:00 1019 30.09 848 25.04 17.1 62.8 52 7.3 45.2
07:05 1019 30.09 848 25.04 16.6 61.8 51 6.5 43.7
07:10 1019 30.09 848 25.04 17.5 63.6 49 6.8 44.3
07:15 1019 30.09 848 25.04 17.5 63.5 49 6.9 44.3
07:20 1019 30.09 848 25.04 17.6 63.8 49 6.9 44.5
07:25 1019 30.09 848 25.04 17.8 64.1 48 6.9 44.4
07:30 1019 30.09 848 25.04 17.6 63.6 49 6.8 44.2
07:35 1019 30.09 848 25.04 17.9 64.2 48 7 44.5
07:40 1019 30.09 848 25.04 18.4 65.2 46 6.8 44.2
07:45 1019 30.09 848 25.04 18.9 66 45 6.9 44.4
07:50 1019 30.09 848 25.04 19.1 66.3 45 7 44.6
07:55 1019 30.09 848 25.04 19 66.3 45 7.1 44.8
08:00 1019 30.09 848 25.04 18 64.3 49 7.1 44.7
08:05 1019 30.09 848 25.04 17.8 64.1 49 7 44.6
08:10 1019 30.09 848 25.04 18.1 64.5 50 7.5 45.5
08:15 1019 30.09 848 25.04 17.6 63.6 50 7 44.6
08:20 1019 30.09 848 25.04 17.6 63.6 51 7.4 45.3
08:25 1019 30.09 849 25.07 18.1 64.5 49 7.4 45.3
08:30 1019 30.09 849 25.07 18 64.5 51 7.7 45.9
08:35 1019 30.09 849 25.07 18.4 65.1 50 8 46.5
08:40 1019 30.09 849 25.07 18.5 65.4 50 8 46.5
08:45 1019 30.09 849 25.07 19.5 67.1 49 8.5 47.2
08:50 1020 30.12 849 25.07 19.6 67.3 47 8.1 46.6
08:55 1020 30.12 849 25.07 19.3 66.8 47 7.9 46.3
09:00 1020 30.12 849 25.07 18.9 66 47 7.5 45.5
09:05 1020 30.12 849 25.07 19.4 66.9 47 8 46.4
09:10 1020 30.12 849 25.07 19.7 67.4 45 7.5 45.6
09:15 1020 30.12 849 25.07 19.8 67.6 45 7.8 46
09:20 1020 30.12 849 25.07 19.9 67.7 46 8 46.4
09:25 1020 30.12 849 25.07 19.2 66.6 46 7.5 45.5
09:30 1020 30.12 849 25.07 20 68 44 7.4 45.4
09:35 1020 30.12 849 25.07 20.3 68.5 42 7 44.6
09:40 1020 30.12 849 25.07 19.9 67.7 41 6.3 43.4
09:45 1020 30.12 849 25.07 20.5 68.9 38 6 42.8
09:50 1020 30.12 849 25.07 20.6 69 39 6.5 43.6
09:55 1020 30.12 849 25.07 21.1 70 39 6.7 44.1
10:00 1020 30.12 849 25.07 20.9 69.7 38 6.1 42.9
10:05 1020 30.12 849 25.07 21.2 70.1 38 6.3 43.4
10:10 1020 30.12 849 25.07 21.6 71 35 5.6 42
10:15 1020 30.12 849 25.07 22.1 71.9 34 5.7 42.2
10:20 1020 30.12 849 25.07 22.4 72.3 33 5.5 41.9
10:25 1020 30.12 849 25.07 21.8 71.3 36 6.2 43.2
10:30 1020 30.12 849 25.07 21.8 71.3 34 5.5 41.8
10:35 1020 30.12 849 25.07 22.1 71.8 34 5.7 42.3
10:40 1020 30.12 849 25.07 21.5 70.7 37 6.3 43.4
10:45 1020 30.12 849 25.07 21.5 70.8 36 5.8 42.5
10:50 1020 30.12 849 25.07 22.4 72.4 34 5.8 42.5
10:55 1020 30.12 849 25.07 22.5 72.6 33 5.5 41.9
11:00 1020 30.12 849 25.07 22.1 71.8 34 5.6 42
11:05 1020 30.12 849 25.07 22.2 72 33 5.5 41.9
11:10 1020 30.12 849 25.07 22.6 72.7 34 6.3 43.4
11:15 1020 30.12 849 25.07 22.9 73.2 33 6 42.8
11:20 1020 30.12 849 25.07 23.4 74.1 33 6.2 43.2
11:25 1020 30.12 849 25.07 23.6 74.5 33 6.5 43.8
11:30 1020 30.12 849 25.07 23.1 73.7 34 6.7 44
11:35 1020 30.12 849 25.07 23.7 74.6 33 6.8 44.3
11:40 1020 30.12 849 25.07 24.2 75.5 33 6.9 44.5
11:45 1020 30.12 849 25.07 24.8 76.6 31 6.8 44.3
11:50 1020 30.12 849 25.07 24.9 76.8 30 6.4 43.5
11:55 1020 30.12 849 25.07 24.5 76.1 32 6.8 44.2
12:00 1020 30.12 849 25.07 24.8 76.6 32 7.2 45
12:05 1020 30.12 849 25.07 25 77 32 7.2 45
12:10 1020 30.12 849 25.07 25.1 77.2 31 7 44.6
12:15 1020 30.12 849 25.07 24.9 76.7 33 7.5 45.5
12:20 1020 30.12 849 25.07 23.8 74.9 35 7.7 45.9
12:25 1020 30.12 849 25.07 23.9 75.1 31 6.1 43
12:30 1020 30.12 849 25.07 25.3 77.5 28 6 42.8
12:35 1020 30.12 849 25.07 25.9 78.7 29 6.7 44
12:40 1020 30.12 849 25.07 26 78.9 28 6.5 43.6
12:45 1020 30.12 849 25.07 26.3 79.4 29 7.1 44.8
12:50 1020 30.12 849 25.07 26.2 79.2 27 6.2 43.1
12:55 1020 30.12 849 25.07 26.7 80.1 27 6.2 43.2
13:00 1020 30.12 849 25.07 27.4 81.4 26 6.4 43.5
13:05 1020 30.12 849 25.07 27.4 81.2 26 6.4 43.4
13:10 1020 30.12 849 25.07 26.8 80.2 25 5.5 41.8
13:15 1020 30.12 849 25.07 26.8 80.2 24 5 41.1
13:20 1020 30.12 849 25.07 26.9 80.4 25 5.2 41.4
13:25 1020 30.12 849 25.07 26 78.9 27 5.7 42.3
13:30 1020 30.12 849 25.07 25 77.1 29 5.9 42.6
13:35 1020 30.12 849 25.07 25.1 77.1 28 5.8 42.4
13:40 1020 30.12 849 25.07 26 78.8 25 4.5 40.1
13:45 1020 30.12 849 25.07 26.3 79.3 26 5.6 42.1
13:50 1020 30.12 849 25.07 26.2 79.2 26 5.4 41.7
13:55 1020 30.12 849 25.07 26.6 79.9 26 5.6 42.1
14:00 1020 30.12 849 25.07 27.3 81.1 24 5.1 41.2
14:05 1020 30.12 849 25.07 28 82.3 22 4.6 40.2
14:10 1020 30.12 849 25.07 27.8 82 23 4.9 40.8
14:15 1020 30.12 849 25.07 27.2 80.9 26 6.1 43
14:20 1020 30.12 849 25.07 27 80.7 24 5 41
14:25 1020 30.12 849 25.07 27.7 81.9 23 4.7 40.5
14:30 1020 30.12 849 25.07 27.9 82.3 22 4.8 40.7
14:35 1020 30.12 849 25.07 28.3 82.9 21 4.5 40.1
14:40 1020 30.12 849 25.07 28.5 83.2 22 4.8 40.6
14:45 1020 30.12 849 25.07 27.2 81 23 4.8 40.7
14:50 1020 30.12 849 25.07 27.8 82.1 22 4.4 40
14:55 1020 30.12 849 25.07 27.5 81.4 23 4.6 40.2
15:00 1020 30.12 849 25.07 27.4 81.4 22 3.9 39.1
15:05 1020 30.12 849 25.07 28 82.4 21 3.8 38.8
15:10 1019 30.09 849 25.07 28 82.3 21 4.2 39.5
15:15 1019 30.09 849 25.07 27.6 81.7 21 3.9 39.1
15:20 1019 30.09 849 25.07 26.9 80.5 22 3.7 38.7
15:25 1019 30.09 849 25.07 26.7 80 21 2.7 36.9
15:30 1019 30.09 849 25.07 27.2 80.9 20 2.8 37
15:35 1019 30.09 849 25.07 27.8 82.1 20 3.1 37.6
15:40 1019 30.09 848 25.04 27.6 81.6 19 2.3 36.2
15:45 1019 30.09 848 25.04 27.7 81.9 20 2.7 36.9
15:50 1019 30.09 848 25.04 27.4 81.4 20 2.9 37.3
15:55 1019 30.09 848 25.04 28.6 83.5 18 2.3 36.1
16:00 1019 30.09 848 25.04 29.3 84.8 17 1.9 35.5
16:05 1019 30.09 848 25.04 29 84.2 18 2.2 36
16:10 1019 30.09 848 25.04 29.4 84.9 16 0.9 33.7
16:15 1019 30.09 848 25.04 29.3 84.8 16 0.9 33.7
16:20 1019 30.09 848 25.04 29.2 84.5 17 2 35.6
16:25 1019 30.09 848 25.04 28.7 83.7 18 2.3 36.1
16:30 1019 30.09 848 25.04 27.9 82.2 18 1.6 34.8
16:35 1019 30.09 848 25.04 28.6 83.6 18 2.6 36.7
16:40 1019 30.09 848 25.04 29 84.2 18 2.5 36.4
16:45 1019 30.09 848 25.04 29.1 84.4 17 1.6 34.9
16:50 1019 30.09 848 25.04 28.2 82.8 17 1.6 34.8
16:55 1019 30.09 848 25.04 28.1 82.7 20 3.2 37.8
17:00 1019 30.09 848 25.04 27 80.6 25 5.7 42.3
17:05 1019 30.09 848 25.04 26.5 79.8 24 4.7 40.5
17:10 1019 30.09 849 25.07 25.8 78.4 32 8 46.3
17:15 1019 30.09 849 25.07 24.2 75.5 36 8.2 46.8
17:20 1020 30.12 849 25.07 23.4 74.1 40 9.1 48.4
17:25 1020 30.12 849 25.07 22.7 72.8 42 9.2 48.6
17:30 1020 30.12 849 25.07 22.2 71.9 46 10.2 50.4
17:35 1020 30.12 849 25.07 21.6 70.8 46 9.7 49.4
17:40 1020 30.12 849 25.07 21.3 70.4 47 9.7 49.5
17:45 1020 30.12 849 25.07 21.2 70.1 48 10 50
17:50 1020 30.12 849 25.07 21 69.8 50 10.3 50.5
17:55 1020 30.12 849 25.07 20.9 69.6 50 10.2 50.4
18:00 1020 30.12 849 25.07 20.9 69.6 50 10.1 50.2
18:05 1020 30.12 849 25.07 20.9 69.5 51 10.4 50.7
18:10 1020 30.12 850 25.1 21 69.8 50 10.3 50.5
18:15 1020 30.12 849 25.07 21 69.9 50 10.4 50.8
18:20 1020 30.12 849 25.07 20.7 69.3 53 11.1 51.9
18:25 1020 30.12 849 25.07 20 68 60 12.1 53.7
18:30 1020 30.12 850 25.1 19.7 67.5 56 10.8 51.4
18:35 1020 30.12 850 25.1 19.9 67.8 55 10.6 51
18:40 1020 30.12 850 25.1 20 68 54 10.4 50.8
18:45 1020 30.12 850 25.1 20.1 68.1 53 10.3 50.5
18:50 1020 30.12 850 25.1 20.1 68.2 52 10.1 50.1
18:55 1021 30.15 850 25.1 20.1 68.2 52 10 50
19:00 1021 30.15 850 25.1 20 68 52 9.9 49.8
19:05 1021 30.15 850 25.1 19.9 67.9 53 10.1 50.1
19:10 1021 30.15 850 25.1 19.8 67.7 53 10 50
19:15 1021 30.15 850 25.1 19.8 67.6 53 10 50.1
19:20 1021 30.15 850 25.1 19.7 67.4 54 10.2 50.4
19:25 1021 30.15 850 25.1 19.6 67.2 54 10.2 50.4
19:30 1021 30.15 850 25.1 19.5 67 54 10 49.9
19:35 1021 30.15 850 25.1 19.5 67 55 10.2 50.3
19:40 1021 30.15 850 25.1 19.4 66.8 56 10.4 50.7
19:45 1021 30.15 850 25.1 19.3 66.7 57 10.6 51.1
19:50 1021 30.15 851 25.13 19.2 66.6 58 10.8 51.4
19:55 1021 30.15 851 25.13 19.1 66.3 61 11.5 52.6
20:00 1021 30.15 850 25.1 18.1 64.5 69 12.5 54.4
20:05 1021 30.15 850 25.1 17.4 63.3 71 12.2 54
20:10 1021 30.15 850 25.1 17.4 63.4 71 12.2 53.9
20:15 1021 30.15 851 25.13 17.4 63.3 72 12.4 54.4
20:20 1022 30.18 851 25.13 17.3 63.1 72 12.2 54
20:25 1022 30.18 851 25.13 17.3 63.1 71 12.1 53.8
20:30 1022 30.18 851 25.13 17.1 62.9 74 12.5 54.5
20:35 1022 30.18 851 25.13 17 62.6 73 12.1 53.8
20:40 1022 30.18 851 25.13 17 62.7 72 11.9 53.5
20:45 1022 30.18 851 25.13 17 62.7 70 11.6 53
20:50 1022 30.18 851 25.13 17.1 62.7 70 11.6 52.9
20:55 1022 30.18 851 25.13 17.1 62.7 70 11.5 52.7
21:00 1022 30.18 851 25.13 17 62.5 69 11.2 52.2
21:05 1022 30.18 851 25.13 17 62.6 68 11 51.9
21:10 1022 30.18 851 25.13 17 62.6 68 11.1 51.9
21:15 1022 30.18 851 25.13 16.9 62.5 67 10.9 51.7
21:20 1022 30.18 852 25.16 16.9 62.5 67 10.8 51.4
21:25 1022 30.18 852 25.16 17 62.5 67 10.8 51.5
21:30 1022 30.18 852 25.16 16.9 62.4 67 10.9 51.6
21:35 1022 30.18 852 25.16 16.8 62.3 67 10.8 51.4
21:40 1023 30.21 852 25.16 16.8 62.3 67 10.8 51.4
21:45 1022 30.18 852 25.16 16.8 62.3 67 10.6 51.1
21:50 1022 30.18 852 25.16 16.8 62.3 67 10.7 51.3
21:55 1023 30.21 852 25.16 16.8 62.2 67 10.6 51.1
22:00 1023 30.21 852 25.16 16.7 62.1 67 10.7 51.2
22:05 1023 30.21 852 25.16 16.7 62.1 66 10.5 51
22:10 1023 30.21 852 25.16 16.8 62.2 66 10.4 50.8
22:15 1023 30.21 852 25.16 16.7 62.1 66 10.5 50.9
22:20 1023 30.21 852 25.16 16.7 62 66 10.4 50.8
22:25 1023 30.21 852 25.16 16.6 61.9 66 10.4 50.7
22:30 1023 30.21 852 25.16 16.6 61.9 66 10.3 50.6
22:35 1023 30.21 852 25.16 16.6 61.9 66 10.4 50.7
22:40 1023 30.21 852 25.16 16.6 62 66 10.4 50.7
22:45 1023 30.21 852 25.16 16.6 61.9 67 10.5 50.9
22:50 1023 30.21 852 25.16 16.6 61.8 67 10.6 51.1
22:55 1023 30.21 852 25.16 16.5 61.7 68 10.6 51
23:00 1023 30.21 852 25.16 16.5 61.7 68 10.7 51.2
23:05 1023 30.21 852 25.16 16.5 61.6 68 10.7 51.3
23:10 1023 30.21 852 25.16 16.5 61.7 68 10.7 51.3
23:15 1023 30.21 852 25.16 16.4 61.6 68 10.6 51.2
23:20 1023 30.21 852 25.16 16.5 61.6 68 10.7 51.3
23:25 1023 30.21 852 25.16 16.4 61.5 68 10.6 51
23:30 1023 30.21 852 25.16 16.5 61.7 68 10.5 51
23:35 1023 30.21 852 25.16 16.5 61.7 68 10.8 51.4
23:40 1023 30.21 852 25.16 16.4 61.5 69 10.7 51.2
23:45 1023 30.21 852 25.16 16.4 61.6 68 10.6 51
23:50 1023 30.21 852 25.16 16.4 61.5 68 10.6 51.1
23:55 1023 30.21 852 25.16 16.4 61.4 68 10.5 50.8
24:00 1023 30.21 852 25.16 16.3 61.4 68 10.4 50.8